Time;durP1;ratioP1;P1;durP2;ratioP2;P2;SDS_P1;SDS_P2;PMS_P1;PMS_P2;Temp;Humidity;BMP_temperature;BMP_pressure;BME280_temperature;BME280_humidity;BME280_pressure;Samples;Min_cycle;Max_cycle;Signal;HPM_P1;HPM_P2
2023/07/12 00:01:15;;;;;;;7.40;5.93;;;;;;;;;;4945673;29;20448;-90
2023/07/12 00:03:43;;;;;;;6.00;5.50;;;;;;;;;;4946487;29;20470;-85
2023/07/12 00:06:15;;;;;;;5.20;4.83;;;;;;;;;;4945967;29;20486;-88
2023/07/12 00:08:49;;;;;;;5.87;5.30;;;;;;;;;;4945300;29;20454;-81
2023/07/12 00:11:18;;;;;;;14.63;5.70;;;;;;;;;;4946212;29;20506;-80
2023/07/12 00:13:46;;;;;;;5.87;5.23;;;;;;;;;;4928210;29;20521;-81
2023/07/12 00:16:19;;;;;;;5.70;5.20;;;;;;;;;;4945258;29;20484;-83
2023/07/12 00:18:47;;;;;;;7.93;6.20;;;;;;;;;;4946619;29;20416;-81
2023/07/12 00:21:17;;;;;;;6.03;5.53;;;;;;;;;;4946748;29;20440;-83
2023/07/12 00:23:44;;;;;;;6.47;5.87;;;;;;;;;;4946876;29;21014;-81
2023/07/12 00:26:19;;;;;;;6.13;5.63;;;;;;;;;;4943948;29;20482;-80
2023/07/12 00:28:47;;;;;;;5.30;4.90;;;;;;;;;;4944646;29;20455;-84
2023/07/12 00:31:14;;;;;;;6.00;5.50;;;;;;;;;;4945640;29;20452;-85
2023/07/12 00:33:52;;;;;;;6.03;5.53;;;;;;;;;;4945553;29;20514;-86
2023/07/12 00:36:31;;;;;;;6.60;6.10;;;;;;;;;;4947264;29;20442;-80
2023/07/12 00:38:59;;;;;;;6.90;5.93;;;;;;;;;;4954314;29;20460;-85
2023/07/12 00:41:36;;;;;;;7.00;5.47;;;;;;;;;;4959685;29;20458;-82
2023/07/12 00:44:27;;;;;;;6.37;5.80;;;;;;;;;;4947809;29;20638;-86
2023/07/12 00:46:56;;;;;;;6.27;5.77;;;;;;;;;;4943410;29;20476;-82
2023/07/12 00:49:25;;;;;;;6.03;5.60;;;;;;;;;;4952830;29;20529;-82
2023/07/12 00:52:05;;;;;;;6.27;5.77;;;;;;;;;;4957409;29;20515;-87
2023/07/12 00:54:49;;;;;;;6.57;5.93;;;;;;;;;;4954165;29;20466;-82
2023/07/12 00:57:17;;;;;;;6.20;5.40;;;;;;;;;;4950440;29;20482;-82
2023/07/12 00:59:47;;;;;;;6.50;5.87;;;;;;;;;;4954334;29;20513;-83
2023/07/12 01:02:15;;;;;;;7.40;5.60;;;;;;;;;;4950111;29;20501;-84
2023/07/12 01:04:47;;;;;;;7.03;6.33;;;;;;;;;;4940212;29;20489;-89
2023/07/12 01:07:16;;;;;;;6.03;5.53;;;;;;;;;;4996873;23;20478;-81
2023/07/12 01:09:43;;;;;;;7.10;5.70;;;;;;;;;;4941968;29;20451;-86
2023/07/12 01:12:11;;;;;;;5.83;5.43;;;;;;;;;;4935210;29;20458;-89
2023/07/12 01:14:41;;;;;;;5.77;5.20;;;;;;;;;;4920964;29;20430;-87
2023/07/12 01:17:09;;;;;;;7.20;6.50;;;;;;;;;;4918427;29;20777;-88
2023/07/12 01:19:37;;;;;;;5.80;5.27;;;;;;;;;;4927193;29;20454;-87
2023/07/12 01:22:05;;;;;;;5.33;4.83;;;;;;;;;;4906676;29;20467;-83
2023/07/12 01:24:33;;;;;;;6.03;5.63;;;;;;;;;;4926623;29;20532;-84
2023/07/12 01:27:07;;;;;;;6.90;6.07;;;;;;;;;;4934419;29;20822;-83
2023/07/12 01:29:34;;;;;;;5.80;5.40;;;;;;;;;;4941499;29;20446;-84
2023/07/12 01:32:02;;;;;;;6.20;5.70;;;;;;;;;;4925279;29;20474;-87
2023/07/12 01:34:29;;;;;;;6.03;5.53;;;;;;;;;;4935637;29;20517;-88
2023/07/12 01:36:57;;;;;;;8.77;5.70;;;;;;;;;;4933298;29;20422;-89
2023/07/12 01:39:25;;;;;;;5.90;5.40;;;;;;;;;;4924934;29;20529;-83
2023/07/12 01:41:53;;;;;;;7.57;6.50;;;;;;;;;;4923241;29;20802;-82
2023/07/12 01:44:21;;;;;;;9.73;6.50;;;;;;;;;;4924879;29;20472;-82
2023/07/12 01:46:48;;;;;;;5.93;5.53;;;;;;;;;;4929766;29;20485;-89
2023/07/12 01:49:15;;;;;;;7.87;7.10;;;;;;;;;;4930350;29;20453;-87
2023/07/12 01:51:44;;;;;;;6.77;6.20;;;;;;;;;;4920445;29;20487;-89
2023/07/12 01:54:13;;;;;;;7.03;6.37;;;;;;;;;;4908981;29;20471;-84
2023/07/12 01:56:41;;;;;;;6.57;6.03;;;;;;;;;;4931200;29;20974;-83
2023/07/12 01:59:08;;;;;;;7.27;5.70;;;;;;;;;;4927335;29;20514;-87
2023/07/12 02:01:36;;;;;;;5.50;5.00;;;;;;;;;;4927729;29;20414;-84
2023/07/12 02:04:04;;;;;;;6.60;6.00;;;;;;;;;;4934379;29;20492;-83
2023/07/12 02:06:39;;;;;;;6.30;5.70;;;;;;;;;;4922204;29;20449;-85
2023/07/12 02:09:08;;;;;;;6.60;5.90;;;;;;;;;;4918371;29;20767;-86
2023/07/12 02:11:35;;;;;;;11.00;5.50;;;;;;;;;;4935103;29;20506;-84
2023/07/12 02:14:03;;;;;;;6.03;5.53;;;;;;;;;;4932977;29;20450;-81
2023/07/12 02:16:33;;;;;;;6.53;6.03;;;;;;;;;;4930495;29;20497;-87
2023/07/12 02:19:02;;;;;;;5.90;5.40;;;;;;;;;;4922740;29;20680;-87
2023/07/12 02:21:30;;;;;;;6.53;6.03;;;;;;;;;;4932660;29;20455;-82
2023/07/12 02:24:00;;;;;;;7.63;5.53;;;;;;;;;;4926136;29;20454;-82
2023/07/12 02:26:27;;;;;;;13.03;5.80;;;;;;;;;;4936528;29;20547;-84
2023/07/12 02:28:55;;;;;;;6.17;5.67;;;;;;;;;;4931425;29;20472;-85
2023/07/12 02:31:24;;;;;;;5.57;5.17;;;;;;;;;;4934590;29;20672;-82
2023/07/12 02:33:51;;;;;;;6.33;5.73;;;;;;;;;;4935712;29;20462;-83
2023/07/12 02:36:20;;;;;;;6.50;5.40;;;;;;;;;;4927045;29;20525;-89
2023/07/12 02:38:48;;;;;;;5.43;5.03;;;;;;;;;;4928153;29;20464;-81
2023/07/12 02:41:16;;;;;;;6.63;6.13;;;;;;;;;;4940741;29;20442;-82
2023/07/12 02:43:46;;;;;;;6.30;5.90;;;;;;;;;;4941352;29;20438;-88
2023/07/12 02:46:14;;;;;;;8.00;6.07;;;;;;;;;;4931464;29;20486;-85
2023/07/12 02:48:42;;;;;;;6.63;6.03;;;;;;;;;;4919768;29;20522;-86
2023/07/12 02:51:10;;;;;;;6.00;5.47;;;;;;;;;;4931676;29;20478;-83
2023/07/12 02:53:38;;;;;;;6.60;6.00;;;;;;;;;;4925390;29;20522;-81
2023/07/12 02:56:07;;;;;;;5.43;5.03;;;;;;;;;;4931079;29;20433;-80
2023/07/12 02:58:35;;;;;;;7.07;6.43;;;;;;;;;;4931116;29;20669;-79
2023/07/12 03:01:04;;;;;;;7.07;6.27;;;;;;;;;;4933638;29;20543;-82
2023/07/12 03:03:33;;;;;;;6.57;5.97;;;;;;;;;;4938406;29;20543;-85
2023/07/12 03:06:08;;;;;;;7.30;6.70;;;;;;;;;;4917662;29;20500;-84
2023/07/12 03:08:38;;;;;;;6.50;6.00;;;;;;;;;;4921740;29;20438;-83
2023/07/12 03:11:09;;;;;;;7.10;6.40;;;;;;;;;;4937774;29;20790;-82
2023/07/12 03:13:37;;;;;;;7.37;6.67;;;;;;;;;;4943780;29;20441;-87
2023/07/12 03:16:07;;;;;;;6.07;5.53;;;;;;;;;;4934708;29;20433;-82
2023/07/12 03:18:39;;;;;;;7.07;6.40;;;;;;;;;;4933925;29;20486;-85
2023/07/12 03:21:07;;;;;;;9.73;6.50;;;;;;;;;;4925219;29;20494;-86
2023/07/12 03:23:37;;;;;;;6.37;5.73;;;;;;;;;;4941984;29;20778;-80
2023/07/12 03:26:04;;;;;;;9.20;6.10;;;;;;;;;;4930188;29;20525;-88
2023/07/12 03:28:32;;;;;;;8.90;6.37;;;;;;;;;;4927056;29;20455;-85
2023/07/12 03:31:08;;;;;;;6.70;6.10;;;;;;;;;;4926892;29;20474;-84
2023/07/12 03:33:36;;;;;;;9.40;6.90;;;;;;;;;;4930402;29;20526;-82
2023/07/12 03:36:05;;;;;;;7.10;6.50;;;;;;;;;;4940715;29;20479;-85
2023/07/12 03:38:35;;;;;;;7.00;6.30;;;;;;;;;;4937243;29;20425;-81
2023/07/12 03:41:05;;;;;;;6.60;6.10;;;;;;;;;;4941710;29;20445;-81
2023/07/12 03:43:33;;;;;;;7.60;5.80;;;;;;;;;;4926573;29;20431;-88
2023/07/12 03:46:01;;;;;;;7.50;6.77;;;;;;;;;;4926174;29;20517;-81
2023/07/12 03:48:29;;;;;;;6.23;5.80;;;;;;;;;;4926858;29;20484;-80
2023/07/12 03:50:57;;;;;;;6.50;5.90;;;;;;;;;;4920500;29;21113;-83
2023/07/12 03:53:28;;;;;;;7.30;6.67;;;;;;;;;;4944216;29;20517;-89
2023/07/12 03:55:58;;;;;;;7.13;6.53;;;;;;;;;;4940020;29;20762;-86
2023/07/12 03:58:27;;;;;;;7.23;6.60;;;;;;;;;;4933641;29;20418;-85
2023/07/12 04:00:55;;;;;;;6.37;5.80;;;;;;;;;;4931128;29;20510;-80
2023/07/12 04:03:25;;;;;;;8.57;6.20;;;;;;;;;;4919694;29;20643;-83
2023/07/12 04:05:52;;;;;;;6.60;6.00;;;;;;;;;;4928452;29;20512;-88
2023/07/12 04:08:24;;;;;;;5.97;5.57;;;;;;;;;;4935223;29;20517;-86
2023/07/12 04:10:53;;;;;;;6.07;5.43;;;;;;;;;;4912365;29;20478;-81
2023/07/12 04:13:22;;;;;;;9.40;6.07;;;;;;;;;;4929201;29;20495;-80
2023/07/12 04:15:54;;;;;;;8.70;5.60;;;;;;;;;;4934441;29;20498;-82
2023/07/12 04:18:25;;;;;;;6.47;5.87;;;;;;;;;;4927574;29;20568;-79
2023/07/12 04:20:55;;;;;;;6.50;5.90;;;;;;;;;;4928882;29;20421;-81
2023/07/12 04:23:23;;;;;;;5.90;5.50;;;;;;;;;;4936775;29;20457;-87
2023/07/12 04:26:05;;;;;;;9.07;6.40;;;;;;;;;;4923567;29;20496;-86
2023/07/12 04:28:43;;;;;;;6.93;6.43;;;;;;;;;;4928077;29;20433;-80
2023/07/12 04:31:12;;;;;;;7.10;6.50;;;;;;;;;;4929792;29;20439;-87
2023/07/12 04:33:40;;;;;;;5.97;5.47;;;;;;;;;;4935014;29;20418;-81
2023/07/12 04:36:13;;;;;;;7.40;5.73;;;;;;;;;;4934309;29;20497;-84
2023/07/12 04:38:47;;;;;;;6.90;5.53;;;;;;;;;;4926333;29;20461;-86
2023/07/12 04:41:15;;;;;;;6.53;5.83;;;;;;;;;;4929813;29;20493;-84
2023/07/12 04:43:43;;;;;;;5.50;5.10;;;;;;;;;;4934720;29;20900;-80
2023/07/12 04:46:10;;;;;;;6.13;5.73;;;;;;;;;;4938217;29;20505;-84
2023/07/12 04:48:39;;;;;;;6.20;5.70;;;;;;;;;;4934931;29;20439;-79
2023/07/12 04:51:07;;;;;;;9.53;6.20;;;;;;;;;;4931904;29;20458;-88
2023/07/12 04:53:36;;;;;;;7.00;5.33;;;;;;;;;;4928378;29;20443;-83
2023/07/12 04:56:03;;;;;;;6.93;6.23;;;;;;;;;;4937954;29;20429;-79
2023/07/12 04:58:31;;;;;;;6.17;5.67;;;;;;;;;;4931218;29;20482;-81
2023/07/12 05:01:03;;;;;;;5.97;5.43;;;;;;;;;;4928438;29;20426;-85
2023/07/12 05:03:34;;;;;;;6.93;5.87;;;;;;;;;;4922938;29;20677;-82
2023/07/12 05:06:02;;;;;;;6.10;5.60;;;;;;;;;;4933651;29;20490;-80
2023/07/12 05:08:51;;;;;;;7.20;6.47;;;;;;;;;;4932150;29;20742;-85
2023/07/12 05:11:19;;;;;;;6.70;6.20;;;;;;;;;;4928625;29;20469;-88
2023/07/12 05:13:53;;;;;;;6.20;5.80;;;;;;;;;;4919595;29;20737;-88
2023/07/12 05:16:21;;;;;;;6.90;6.20;;;;;;;;;;4927831;29;20647;-82
2023/07/12 05:18:48;;;;;;;7.13;6.30;;;;;;;;;;4925416;29;20436;-83
2023/07/12 05:21:16;;;;;;;7.73;6.50;;;;;;;;;;4931628;29;20485;-90
2023/07/12 05:23:49;;;;;;;6.40;5.80;;;;;;;;;;4926080;29;20487;-80
2023/07/12 05:26:18;;;;;;;8.07;6.60;;;;;;;;;;4937369;29;20508;-83
2023/07/12 05:28:55;;;;;;;8.73;6.30;;;;;;;;;;4936770;29;20954;-79
2023/07/12 05:31:22;;;;;;;6.70;6.13;;;;;;;;;;4933917;29;20627;-81
2023/07/12 05:33:49;;;;;;;8.03;6.33;;;;;;;;;;4915461;29;20855;-83
2023/07/12 05:36:17;;;;;;;7.20;6.50;;;;;;;;;;4925302;29;20438;-85
2023/07/12 05:38:45;;;;;;;6.93;6.33;;;;;;;;;;4925937;29;20627;-79
2023/07/12 05:41:14;;;;;;;8.27;6.50;;;;;;;;;;4924897;29;20434;-78
2023/07/12 05:43:43;;;;;;;7.93;6.70;;;;;;;;;;4921840;29;20426;-84
2023/07/12 05:46:10;;;;;;;6.97;6.23;;;;;;;;;;4923734;29;20457;-80
2023/07/12 05:48:38;;;;;;;6.60;6.00;;;;;;;;;;4922091;29;20420;-80
2023/07/12 05:51:07;;;;;;;7.93;7.13;;;;;;;;;;4922431;29;20428;-80
2023/07/12 05:53:37;;;;;;;7.83;7.03;;;;;;;;;;4927082;29;20405;-81
2023/07/12 05:56:06;;;;;;;8.00;7.13;;;;;;;;;;4923897;29;20429;-84
2023/07/12 05:58:35;;;;;;;10.40;7.40;;;;;;;;;;4910362;29;20423;-81
2023/07/12 06:01:03;;;;;;;18.70;8.20;;;;;;;;;;4928118;29;20442;-82
2023/07/12 06:03:32;;;;;;;13.50;7.30;;;;;;;;;;4916267;29;20517;-79
2023/07/12 06:06:01;;;;;;;9.40;7.60;;;;;;;;;;4924117;29;20431;-78
2023/07/12 06:08:28;;;;;;;8.00;7.40;;;;;;;;;;4924711;29;20476;-78
2023/07/12 06:10:56;;;;;;;7.97;7.20;;;;;;;;;;4919579;29;20433;-80
2023/07/12 06:13:23;;;;;;;9.13;8.33;;;;;;;;;;4915732;29;20576;-79
2023/07/12 06:15:51;;;;;;;7.30;6.60;;;;;;;;;;4922428;29;20457;-80
2023/07/12 06:18:19;;;;;;;9.03;8.10;;;;;;;;;;4926809;29;20462;-80
2023/07/12 06:20:47;;;;;;;11.00;8.27;;;;;;;;;;4925273;29;20429;-82
2023/07/12 06:23:16;;;;;;;8.17;7.37;;;;;;;;;;4921636;29;20422;-82
2023/07/12 06:25:43;;;;;;;9.70;7.67;;;;;;;;;;4918611;29;20447;-81
2023/07/12 06:28:11;;;;;;;8.73;7.93;;;;;;;;;;4933298;29;20804;-81
2023/07/12 06:30:39;;;;;;;6.57;6.13;;;;;;;;;;4923878;29;20749;-82
2023/07/12 06:33:06;;;;;;;7.87;7.17;;;;;;;;;;4916106;29;21022;-79
2023/07/12 06:35:36;;;;;;;8.83;8.03;;;;;;;;;;4917473;29;20430;-80
2023/07/12 06:38:04;;;;;;;10.30;7.90;;;;;;;;;;4923240;29;20456;-81
2023/07/12 06:40:32;;;;;;;8.30;7.50;;;;;;;;;;4930581;29;20428;-78
2023/07/12 06:42:59;;;;;;;10.50;7.97;;;;;;;;;;4935398;29;20436;-81
2023/07/12 06:45:28;;;;;;;9.70;8.90;;;;;;;;;;4929442;29;20454;-85
2023/07/12 06:47:55;;;;;;;10.90;8.23;;;;;;;;;;4927573;29;20546;-80
2023/07/12 06:50:25;;;;;;;9.40;8.53;;;;;;;;;;4919221;29;20429;-85
2023/07/12 06:52:53;;;;;;;9.43;7.53;;;;;;;;;;4928703;29;20485;-78
2023/07/12 06:55:22;;;;;;;9.70;8.70;;;;;;;;;;4920453;29;20481;-79
2023/07/12 06:57:52;;;;;;;8.73;8.03;;;;;;;;;;4927091;29;20476;-79
2023/07/12 07:00:20;;;;;;;9.80;8.90;;;;;;;;;;4928962;29;20506;-78
2023/07/12 07:02:47;;;;;;;10.30;9.27;;;;;;;;;;4912776;29;20458;-83
2023/07/12 07:05:15;;;;;;;11.20;8.83;;;;;;;;;;4927825;29;20429;-81
2023/07/12 07:07:45;;;;;;;9.80;8.83;;;;;;;;;;4928945;29;20578;-80
2023/07/12 07:10:13;;;;;;;11.03;9.40;;;;;;;;;;4924404;29;20594;-80
2023/07/12 07:12:41;;;;;;;11.50;9.07;;;;;;;;;;4921266;29;20454;-79
2023/07/12 07:15:10;;;;;;;11.60;9.70;;;;;;;;;;4919828;29;20444;-79
2023/07/12 07:17:38;;;;;;;13.50;9.00;;;;;;;;;;4920423;29;20445;-79
2023/07/12 07:20:05;;;;;;;9.93;9.03;;;;;;;;;;4918699;29;20840;-80
2023/07/12 07:22:33;;;;;;;9.57;8.57;;;;;;;;;;4922346;29;20516;-81
2023/07/12 07:25:00;;;;;;;13.70;9.67;;;;;;;;;;4923733;29;20444;-81
2023/07/12 07:27:44;;;;;;;9.93;8.97;;;;;;;;;;4930514;29;20676;-81
2023/07/12 07:30:12;;;;;;;13.87;10.57;;;;;;;;;;4934169;29;20445;-81
2023/07/12 07:32:40;;;;;;;11.50;8.70;;;;;;;;;;4924604;29;20493;-81
2023/07/12 07:35:08;;;;;;;10.70;8.80;;;;;;;;;;4934839;29;20440;-80
2023/07/12 07:37:37;;;;;;;10.70;9.70;;;;;;;;;;4922401;29;20430;-82
2023/07/12 07:40:07;;;;;;;10.73;8.60;;;;;;;;;;4935161;29;20420;-81
2023/07/12 07:42:39;;;;;;;10.47;9.47;;;;;;;;;;4933962;29;20519;-81
2023/07/12 07:45:13;;;;;;;12.13;9.60;;;;;;;;;;4924204;29;20453;-81
2023/07/12 07:47:42;;;;;;;11.10;9.90;;;;;;;;;;4931525;29;20913;-84
2023/07/12 07:50:09;;;;;;;14.20;10.33;;;;;;;;;;4925506;29;20447;-81
2023/07/12 07:52:37;;;;;;;11.23;10.13;;;;;;;;;;4937119;29;20463;-82
2023/07/12 07:55:05;;;;;;;16.90;10.17;;;;;;;;;;4927524;29;20510;-81
2023/07/12 07:57:33;;;;;;;10.60;9.60;;;;;;;;;;4924925;29;20460;-81
2023/07/12 08:00:05;;;;;;;20.37;11.10;;;;;;;;;;4919781;29;21092;-79
2023/07/12 08:02:33;;;;;;;13.43;10.10;;;;;;;;;;4919778;29;20810;-80
2023/07/12 08:05:00;;;;;;;11.47;10.13;;;;;;;;;;4919008;29;20494;-80
2023/07/12 08:07:28;;;;;;;10.77;9.67;;;;;;;;;;4922170;29;20461;-82
2023/07/12 08:09:56;;;;;;;14.00;10.93;;;;;;;;;;4930801;29;20455;-80
2023/07/12 08:12:23;;;;;;;13.57;11.83;;;;;;;;;;4936705;29;20428;-81
2023/07/12 08:14:51;;;;;;;11.70;10.50;;;;;;;;;;4929382;29;20447;-83
2023/07/12 08:17:20;;;;;;;13.00;10.67;;;;;;;;;;4926631;29;20485;-79
2023/07/12 08:19:50;;;;;;;13.03;9.63;;;;;;;;;;4930299;29;20513;-84
2023/07/12 08:22:19;;;;;;;15.43;10.53;;;;;;;;;;4921216;29;20414;-82
2023/07/12 08:24:47;;;;;;;10.83;9.83;;;;;;;;;;4929789;29;20510;-82
2023/07/12 08:27:18;;;;;;;13.47;10.50;;;;;;;;;;4924331;29;20478;-80
2023/07/12 08:29:45;;;;;;;10.90;9.10;;;;;;;;;;4933615;29;20450;-80
2023/07/12 08:32:13;;;;;;;10.50;9.60;;;;;;;;;;4928025;29;20548;-81
2023/07/12 08:34:41;;;;;;;15.30;10.07;;;;;;;;;;4915105;29;21120;-82
2023/07/12 08:37:08;;;;;;;14.67;10.67;;;;;;;;;;4918059;29;20473;-81
2023/07/12 08:39:38;;;;;;;15.57;10.00;;;;;;;;;;4928962;29;20506;-84
2023/07/12 08:42:11;;;;;;;11.33;10.20;;;;;;;;;;4933601;29;20973;-80
2023/07/12 08:44:40;;;;;;;14.80;10.37;;;;;;;;;;4927539;29;20426;-81
2023/07/12 08:47:14;;;;;;;11.33;10.00;;;;;;;;;;4921487;29;20520;-80
2023/07/12 08:49:41;;;;;;;12.00;9.23;;;;;;;;;;4928033;29;20465;-82
2023/07/12 08:52:11;;;;;;;11.87;10.80;;;;;;;;;;4926219;29;20471;-88
2023/07/12 08:54:39;;;;;;;22.63;10.30;;;;;;;;;;4916962;29;20519;-81
2023/07/12 08:57:16;;;;;;;11.10;10.10;;;;;;;;;;4925942;29;20485;-80
2023/07/12 09:00:06;;;;;;;12.73;11.63;;;;;;;;;;4929820;29;20405;-81
2023/07/12 09:02:34;;;;;;;12.30;11.20;;;;;;;;;;4923425;29;20477;-80
2023/07/12 09:05:16;;;;;;;11.47;10.43;;;;;;;;;;4918992;29;20441;-84
2023/07/12 09:07:55;;;;;;;14.67;10.73;;;;;;;;;;4922365;29;20494;-81
2023/07/12 09:10:29;;;;;;;12.93;11.10;;;;;;;;;;4924234;29;20502;-80
2023/07/12 09:12:59;;;;;;;13.80;10.63;;;;;;;;;;4931635;29;20474;-84
2023/07/12 09:15:32;;;;;;;10.87;9.80;;;;;;;;;;4924873;29;20501;-81
2023/07/12 09:18:03;;;;;;;11.97;10.77;;;;;;;;;;4941176;29;20480;-80
2023/07/12 09:20:52;;;;;;;11.60;10.50;;;;;;;;;;4915825;29;20644;-83
2023/07/12 09:23:20;;;;;;;12.23;11.20;;;;;;;;;;4918884;29;20500;-80
2023/07/12 09:25:57;;;;;;;12.50;10.20;;;;;;;;;;4931444;29;20477;-84
2023/07/12 09:28:24;;;;;;;12.30;11.30;;;;;;;;;;4924605;29;20502;-83
2023/07/12 09:30:52;;;;;;;12.23;10.37;;;;;;;;;;4933796;29;20508;-82
2023/07/12 09:33:25;;;;;;;11.53;10.70;;;;;;;;;;4930250;29;20471;-79
2023/07/12 09:36:04;;;;;;;12.47;11.27;;;;;;;;;;4927314;29;20439;-82
2023/07/12 09:38:35;;;;;;;11.60;10.70;;;;;;;;;;4918718;29;20444;-82
2023/07/12 09:41:09;;;;;;;21.33;11.53;;;;;;;;;;4921700;29;20443;-83
2023/07/12 09:43:46;;;;;;;12.77;11.57;;;;;;;;;;4919116;29;20441;-86
2023/07/12 09:46:25;;;;;;;12.27;11.27;;;;;;;;;;4943619;29;20512;-82
2023/07/12 09:49:07;;;;;;;10.93;10.13;;;;;;;;;;4926752;29;20491;-86
2023/07/12 09:51:51;;;;;;;12.57;11.37;;;;;;;;;;4927625;29;20477;-83
2023/07/12 09:54:37;;;;;;;11.43;10.50;;;;;;;;;;4921999;29;20446;-80
2023/07/12 09:57:16;;;;;;;10.93;10.13;;;;;;;;;;4923803;29;20466;-85
2023/07/12 09:59:50;;;;;;;12.40;11.17;;;;;;;;;;4921332;29;20447;-81
2023/07/12 10:02:26;;;;;;;10.20;9.40;;;;;;;;;;4926597;29;20824;-80
2023/07/12 10:04:58;;;;;;;10.90;9.67;;;;;;;;;;4917097;29;20443;-81
2023/07/12 10:07:47;;;;;;;10.60;9.70;;;;;;;;;;4917235;29;20542;-85
2023/07/12 10:10:29;;;;;;;11.50;10.30;;;;;;;;;;4925542;29;20619;-80
2023/07/12 10:13:23;;;;;;;10.67;9.67;;;;;;;;;;4926333;29;20887;-85
2023/07/12 10:15:52;;;;;;;9.70;8.87;;;;;;;;;;4912271;29;20847;-83
2023/07/12 10:18:26;;;;;;;9.60;8.73;;;;;;;;;;4919329;29;20482;-84
2023/07/12 10:20:56;;;;;;;11.03;10.03;;;;;;;;;;4917820;29;20798;-82
2023/07/12 10:23:29;;;;;;;11.30;10.30;;;;;;;;;;4932711;29;20594;-83
2023/07/12 10:26:03;;;;;;;9.50;8.80;;;;;;;;;;4920009;29;20428;-84
2023/07/12 10:28:57;;;;;;;9.87;8.87;;;;;;;;;;4920480;29;20545;-83
2023/07/12 10:31:35;;;;;;;9.27;8.57;;;;;;;;;;4912530;29;20447;-84
2023/07/12 10:34:24;;;;;;;10.03;9.40;;;;;;;;;;4924568;29;20457;-82
2023/07/12 10:36:57;;;;;;;14.67;10.27;;;;;;;;;;4928498;29;20449;-83
2023/07/12 10:39:27;;;;;;;10.13;9.33;;;;;;;;;;4913989;29;20512;-82
2023/07/12 10:42:03;;;;;;;10.63;9.93;;;;;;;;;;4930062;29;20493;-82
2023/07/12 10:44:33;;;;;;;10.80;10.00;;;;;;;;;;4933800;29;20435;-80
2023/07/12 10:47:04;;;;;;;8.10;7.60;;;;;;;;;;4927793;29;20452;-81
2023/07/12 10:49:37;;;;;;;9.13;8.33;;;;;;;;;;4919526;29;20535;-82
2023/07/12 10:52:15;;;;;;;9.90;9.00;;;;;;;;;;4926810;29;20469;-83
2023/07/12 10:54:51;;;;;;;12.23;9.10;;;;;;;;;;4915489;29;20539;-83
2023/07/12 10:57:24;;;;;;;9.57;8.83;;;;;;;;;;4933563;29;20451;-82
2023/07/12 11:00:05;;;;;;;25.87;9.53;;;;;;;;;;4923593;29;20447;-81
2023/07/12 11:02:40;;;;;;;10.00;9.10;;;;;;;;;;4922271;29;20442;-81
2023/07/12 11:05:40;;;;;;;11.10;10.03;;;;;;;;;;4910921;29;20426;-84
2023/07/12 11:08:38;;;;;;;9.30;8.50;;;;;;;;;;4923042;29;20500;-84
2023/07/12 11:11:15;;;;;;;9.57;8.87;;;;;;;;;;4933493;29;20457;-85
2023/07/12 11:13:44;;;;;;;9.90;9.20;;;;;;;;;;4936553;29;20435;-81
2023/07/12 11:16:16;;;;;;;8.93;8.33;;;;;;;;;;4914380;29;20461;-83
2023/07/12 11:18:54;;;;;;;9.80;9.20;;;;;;;;;;4931993;29;20642;-84
2023/07/12 11:21:41;;;;;;;10.87;9.97;;;;;;;;;;4918279;29;20493;-84
2023/07/12 11:24:41;;;;;;;10.40;9.60;;;;;;;;;;4928214;29;21381;-83
2023/07/12 11:27:26;;;;;;;10.00;9.20;;;;;;;;;;4925556;29;20577;-82
2023/07/12 11:29:56;;;;;;;11.00;10.00;;;;;;;;;;4922219;29;20435;-85
2023/07/12 11:32:33;;;;;;;9.70;8.80;;;;;;;;;;4942200;29;20441;-82
2023/07/12 11:35:24;;;;;;;12.03;8.97;;;;;;;;;;4920651;29;20516;-86
2023/07/12 11:37:58;;;;;;;9.40;8.80;;;;;;;;;;4927328;29;20460;-84
2023/07/12 11:40:30;;;;;;;7.73;6.97;;;;;;;;;;4910712;29;20466;-86
2023/07/12 11:43:15;;;;;;;7.27;6.67;;;;;;;;;;4924904;29;20551;-82
2023/07/12 11:45:43;;;;;;;7.20;6.57;;;;;;;;;;4934551;29;20539;-83
2023/07/12 11:48:13;;;;;;;7.73;7.00;;;;;;;;;;4927258;29;20479;-81
2023/07/12 11:50:41;;;;;;;6.40;6.00;;;;;;;;;;4928084;29;20449;-82
2023/07/12 11:53:13;;;;;;;7.30;6.70;;;;;;;;;;4929899;29;20530;-87
2023/07/12 11:55:40;;;;;;;8.07;6.40;;;;;;;;;;4929630;29;20516;-86
2023/07/12 11:58:19;;;;;;;7.60;7.03;;;;;;;;;;4917814;29;20849;-84
2023/07/12 12:00:50;;;;;;;8.40;7.70;;;;;;;;;;4916625;29;20454;-86
2023/07/12 12:03:20;;;;;;;7.97;7.17;;;;;;;;;;4932530;29;20498;-84
2023/07/12 12:05:49;;;;;;;7.30;6.83;;;;;;;;;;4928457;29;20522;-86
2023/07/12 12:08:21;;;;;;;7.30;6.70;;;;;;;;;;4916972;29;20558;-81
2023/07/12 12:10:51;;;;;;;5.93;5.53;;;;;;;;;;4923658;29;20708;-86
2023/07/12 12:13:30;;;;;;;5.97;5.57;;;;;;;;;;4923787;29;20459;-88
2023/07/12 12:16:06;;;;;;;6.30;5.80;;;;;;;;;;4919153;29;20509;-82
2023/07/12 12:18:35;;;;;;;6.63;6.13;;;;;;;;;;4923805;29;20478;-82
2023/07/12 12:21:16;;;;;;;6.10;5.50;;;;;;;;;;4934017;29;20847;-81
2023/07/12 12:24:06;;;;;;;5.63;5.10;;;;;;;;;;4926301;29;20452;-81
2023/07/12 12:26:39;;;;;;;5.20;4.90;;;;;;;;;;4918637;29;20479;-87
2023/07/12 12:29:17;;;;;;;6.10;5.53;;;;;;;;;;4923937;29;20481;-83
2023/07/12 12:31:53;;;;;;;5.60;5.10;;;;;;;;;;4927256;29;20454;-83
2023/07/12 12:34:43;;;;;;;6.20;5.80;;;;;;;;;;4922293;29;20477;-85
2023/07/12 12:37:13;;;;;;;6.07;5.60;;;;;;;;;;4946174;29;20505;-84
2023/07/12 12:39:41;;;;;;;7.47;5.30;;;;;;;;;;4932675;29;20742;-84
2023/07/12 12:42:19;;;;;;;5.30;5.00;;;;;;;;;;4935578;29;20443;-84
2023/07/12 12:44:51;;;;;;;6.17;5.73;;;;;;;;;;4927594;29;20431;-85
2023/07/12 12:47:26;;;;;;;5.90;5.40;;;;;;;;;;4930612;29;20455;-87
2023/07/12 12:49:53;;;;;;;5.73;5.33;;;;;;;;;;4944113;29;20490;-88
2023/07/12 12:52:24;;;;;;;6.40;6.00;;;;;;;;;;4918558;29;20709;-85
2023/07/12 12:54:57;;;;;;;5.90;5.37;;;;;;;;;;4926491;29;20435;-85
2023/07/12 12:57:28;;;;;;;5.77;5.27;;;;;;;;;;4923842;29;20463;-84
2023/07/12 12:59:59;;;;;;;6.20;5.60;;;;;;;;;;4927789;29;20554;-82
2023/07/12 13:02:36;;;;;;;5.30;5.00;;;;;;;;;;4931390;29;20462;-86
2023/07/12 13:05:07;;;;;;;5.53;5.00;;;;;;;;;;4923225;29;20436;-86
2023/07/12 13:07:39;;;;;;;6.03;5.40;;;;;;;;;;4939799;29;20450;-86
2023/07/12 13:10:30;;;;;;;6.20;5.70;;;;;;;;;;4921334;29;20427;-86
2023/07/12 13:13:04;;;;;;;6.50;6.03;;;;;;;;;;4924216;29;20468;-84
2023/07/12 13:15:37;;;;;;;6.20;5.80;;;;;;;;;;4923737;29;20454;-84
2023/07/12 13:18:28;;;;;;;7.40;5.50;;;;;;;;;;4927223;29;20568;-83
2023/07/12 13:21:20;;;;;;;5.87;5.33;;;;;;;;;;4906419;29;20515;-85
2023/07/12 13:23:51;;;;;;;6.60;5.83;;;;;;;;;;4930878;29;20447;-83
2023/07/12 13:26:21;;;;;;;5.13;4.83;;;;;;;;;;4917345;29;20478;-85
2023/07/12 13:28:51;;;;;;;6.03;5.30;;;;;;;;;;4915241;29;21078;-82
2023/07/12 13:31:21;;;;;;;4.97;4.57;;;;;;;;;;4923066;29;20449;-83
2023/07/12 13:33:52;;;;;;;6.20;5.83;;;;;;;;;;4925252;29;20455;-82
2023/07/12 13:36:32;;;;;;;7.60;5.97;;;;;;;;;;4911015;29;20466;-82
2023/07/12 13:39:08;;;;;;;8.70;5.17;;;;;;;;;;4916306;29;20875;-85
2023/07/12 13:41:39;;;;;;;6.23;5.67;;;;;;;;;;4923013;29;20519;-83
2023/07/12 13:44:17;;;;;;;5.40;5.10;;;;;;;;;;4922964;29;20459;-86
2023/07/12 13:46:49;;;;;;;5.53;5.13;;;;;;;;;;4930606;29;20450;-81
2023/07/12 13:49:32;;;;;;;6.40;6.00;;;;;;;;;;4922997;29;20811;-83
2023/07/12 13:52:00;;;;;;;6.47;5.87;;;;;;;;;;4925349;29;20482;-83
2023/07/12 13:54:27;;;;;;;6.80;6.20;;;;;;;;;;4924230;29;20509;-82
2023/07/12 13:57:00;;;;;;;7.07;6.43;;;;;;;;;;4918879;29;20474;-83
2023/07/12 13:59:27;;;;;;;5.70;5.40;;;;;;;;;;4925162;29;20513;-84
2023/07/12 14:01:57;;;;;;;6.93;6.53;;;;;;;;;;4912598;29;20443;-83
2023/07/12 14:04:45;;;;;;;5.80;5.33;;;;;;;;;;4913497;29;20514;-87
2023/07/12 14:07:21;;;;;;;6.70;6.20;;;;;;;;;;4907924;29;20904;-83
2023/07/12 14:10:05;;;;;;;5.47;5.17;;;;;;;;;;4913907;29;20787;-83
2023/07/12 14:12:43;;;;;;;5.53;5.13;;;;;;;;;;4923379;29;20443;-83
2023/07/12 14:15:24;;;;;;;6.93;6.43;;;;;;;;;;4920792;29;20480;-83
2023/07/12 14:18:09;;;;;;;7.07;5.50;;;;;;;;;;4933956;29;20470;-84
2023/07/12 14:20:41;;;;;;;6.37;5.80;;;;;;;;;;4913665;29;20474;-83
2023/07/12 14:23:22;;;;;;;;;;;;;;;;;;;;;
2023/07/12 14:25:58;;;;;;;7.00;6.50;;;;;;;;;;4927705;29;20509;-85
2023/07/12 14:28:35;;;;;;;5.40;5.00;;;;;;;;;;4912044;29;20530;-82
2023/07/12 14:31:20;;;;;;;7.63;6.30;;;;;;;;;;4921194;29;20534;-83
2023/07/12 14:34:13;;;;;;;5.90;5.50;;;;;;;;;;4920390;29;20467;-86
2023/07/12 14:36:46;;;;;;;6.23;5.83;;;;;;;;;;4916018;29;20426;-86
2023/07/12 14:39:19;;;;;;;5.60;5.20;;;;;;;;;;4920499;29;20474;-85
2023/07/12 14:41:47;;;;;;;11.63;7.00;;;;;;;;;;4918999;29;20454;-82
2023/07/12 14:44:17;;;;;;;7.63;6.93;;;;;;;;;;4928283;29;20940;-84
2023/07/12 14:46:46;;;;;;;7.13;6.20;;;;;;;;;;4907462;29;20466;-86
2023/07/12 14:49:16;;;;;;;7.90;7.20;;;;;;;;;;4924292;29;20494;-83
2023/07/12 14:51:44;;;;;;;9.23;8.53;;;;;;;;;;4928377;29;20447;-82
2023/07/12 14:54:30;;;;;;;11.37;10.33;;;;;;;;;;4924098;29;20477;-82
2023/07/12 14:57:09;;;;;;;7.80;7.20;;;;;;;;;;4923452;29;20679;-84
2023/07/12 14:59:53;;;;;;;9.33;8.40;;;;;;;;;;4928095;29;20491;-82
2023/07/12 15:02:25;;;;;;;8.57;6.90;;;;;;;;;;4927527;29;20986;-85
2023/07/12 15:04:55;;;;;;;6.77;5.90;;;;;;;;;;4916403;29;20438;-86
2023/07/12 15:07:24;;;;;;;6.30;5.80;;;;;;;;;;4922672;29;20450;-83